Time;durP1;ratioP1;P1;durP2;ratioP2;P2;SDS_P1;SDS_P2;PMS_P1;PMS_P2;Temp;Humidity;BMP_temperature;BMP_pressure;BME280_temperature;BME280_humidity;BME280_pressure;Samples;Min_cycle;Max_cycle;Signal;HPM_P1;HPM_P2
2021/05/31 00:00:01;;;;;;;10.63;4.40;;;10.80;99.90;;;;;;5057034;28;20512;-64
2021/05/31 00:02:28;;;;;;;6.82;3.42;;;10.60;99.90;;;;;;5056968;28;20051;-64
2021/05/31 00:04:54;;;;;;;8.10;3.55;;;10.60;99.90;;;;;;5056425;28;20747;-64
2021/05/31 00:07:20;;;;;;;;;;;10.50;99.90;;;;;;5055285;28;20048;-64
2021/05/31 00:09:49;;;;;;;8.43;3.75;;;10.50;99.90;;;;;;5054824;28;19924;-64
2021/05/31 00:12:18;;;;;;;8.75;3.70;;;10.40;99.90;;;;;;5055134;28;20063;-64
2021/05/31 00:14:46;;;;;;;8.75;4.07;;;10.30;99.90;;;;;;5056577;28;20060;-64
2021/05/31 00:17:14;;;;;;;7.65;4.65;;;10.30;99.90;;;;;;5053274;28;20118;-64
2021/05/31 00:19:41;;;;;;;10.18;3.92;;;10.30;99.90;;;;;;5058346;28;20118;-65
2021/05/31 00:22:08;;;;;;;12.70;4.40;;;10.30;99.90;;;;;;5057371;28;20102;-64
2021/05/31 00:24:36;;;;;;;10.68;4.38;;;10.30;99.90;;;;;;5057560;28;20047;-64
2021/05/31 00:27:02;;;;;;;8.48;4.63;;;10.30;99.90;;;;;;5056616;28;20063;-64
2021/05/31 00:29:29;;;;;;;9.43;4.82;;;10.10;99.90;;;;;;5057646;28;20048;-64
2021/05/31 00:31:58;;;;;;;8.80;4.65;;;10.20;99.90;;;;;;5056390;28;20109;-64
2021/05/31 00:34:25;;;;;;;11.00;5.25;;;10.30;99.90;;;;;;5055737;28;20306;-64
2021/05/31 00:36:52;;;;;;;9.13;4.95;;;10.20;99.90;;;;;;5054221;28;20056;-63
2021/05/31 00:39:20;;;;;;;9.88;4.20;;;10.20;99.90;;;;;;5061195;28;20177;-64
2021/05/31 00:41:49;;;;;;;11.68;4.68;;;10.20;99.90;;;;;;5061678;28;20101;-64
2021/05/31 00:44:17;;;;;;;8.43;3.97;;;10.00;99.90;;;;;;5058418;28;20079;-64
2021/05/31 00:46:44;;;;;;;10.82;4.70;;;10.00;99.90;;;;;;5061396;28;20050;-64
2021/05/31 00:49:12;;;;;;;8.73;4.70;;;9.90;99.90;;;;;;5060907;28;20471;-64
2021/05/31 00:51:38;;;;;;;9.35;4.75;;;10.00;99.90;;;;;;5057936;28;20048;-64
2021/05/31 00:54:05;;;;;;;8.45;3.92;;;9.80;99.90;;;;;;5061153;28;20064;-64
2021/05/31 00:56:32;;;;;;;10.68;4.82;;;10.00;99.90;;;;;;5058165;28;20428;-63
2021/05/31 00:58:58;;;;;;;9.70;4.53;;;10.00;99.90;;;;;;5057829;28;20054;-64
2021/05/31 01:01:25;;;;;;;7.90;4.28;;;9.80;99.90;;;;;;5060087;28;20052;-64
2021/05/31 01:03:51;;;;;;;12.32;4.53;;;9.80;99.90;;;;;;5059247;28;20056;-64
2021/05/31 01:06:22;;;;;;;10.30;4.22;;;9.60;99.90;;;;;;5061406;28;20051;-64
2021/05/31 01:08:55;;;;;;;11.80;4.93;;;9.70;99.90;;;;;;5057252;28;20049;-64
2021/05/31 01:11:31;;;;;;;15.38;5.00;;;9.70;99.90;;;;;;5060792;28;20060;-63
2021/05/31 01:14:07;;;;;;;14.85;4.13;;;9.70;99.90;;;;;;5062109;28;20935;-64
2021/05/31 01:16:38;;;;;;;12.30;4.82;;;9.70;99.90;;;;;;5061835;28;20051;-64
2021/05/31 01:19:12;;;;;;;9.70;4.53;;;9.70;99.90;;;;;;5059896;28;20048;-64
2021/05/31 01:21:50;;;;;;;10.48;4.57;;;9.50;99.90;;;;;;5061568;28;20538;-64
2021/05/31 01:24:31;;;;;;;10.10;4.60;;;9.50;99.90;;;;;;5061282;28;20047;-64
2021/05/31 01:27:08;;;;;;;11.68;4.40;;;9.60;99.90;;;;;;5058319;28;20056;-64
2021/05/31 01:29:37;;;;;;;8.05;4.10;;;9.50;99.90;;;;;;5061485;28;20114;-64
2021/05/31 01:32:05;;;;;;;9.65;4.30;;;9.50;99.90;;;;;;5060012;28;20497;-64
2021/05/31 01:34:35;;;;;;;9.70;4.47;;;9.50;99.90;;;;;;5058033;28;20651;-63
2021/05/31 01:37:05;;;;;;;9.60;3.97;;;9.60;99.90;;;;;;5058294;28;20052;-64
2021/05/31 01:39:35;;;;;;;9.43;4.57;;;9.40;99.90;;;;;;5061740;28;20052;-64
2021/05/31 01:42:02;;;;;;;7.38;4.38;;;9.30;99.90;;;;;;5059399;28;20064;-64
2021/05/31 01:44:28;;;;;;;13.13;4.68;;;9.40;99.90;;;;;;5058116;28;20045;-63
2021/05/31 01:46:57;;;;;;;8.80;3.92;;;9.50;99.90;;;;;;5057574;28;20056;-64
2021/05/31 01:49:24;;;;;;;8.02;3.92;;;9.50;99.90;;;;;;5057632;28;20524;-63
2021/05/31 01:51:51;;;;;;;8.27;3.80;;;9.60;99.90;;;;;;5059148;28;20398;-64
2021/05/31 01:54:20;;;;;;;9.52;4.00;;;9.50;99.90;;;;;;5058697;28;20098;-64
2021/05/31 01:56:48;;;;;;;7.70;3.83;;;9.60;99.90;;;;;;5059546;28;20048;-64
2021/05/31 01:59:16;;;;;;;16.30;4.35;;;9.60;99.90;;;;;;5056310;28;20505;-64
2021/05/31 02:01:43;;;;;;;9.98;4.60;;;9.50;99.90;;;;;;5060984;28;20095;-64
2021/05/31 02:04:11;;;;;;;8.02;4.32;;;9.50;99.90;;;;;;5058301;28;20045;-64
2021/05/31 02:06:38;;;;;;;7.40;4.10;;;9.50;99.90;;;;;;5059206;28;20064;-64
2021/05/31 02:09:05;;;;;;;8.73;4.30;;;9.30;99.90;;;;;;5058567;28;20052;-64
2021/05/31 02:11:40;;;;;;;9.85;4.57;;;9.20;99.90;;;;;;5059352;28;20051;-64
2021/05/31 02:14:12;;;;;;;11.13;4.80;;;9.00;99.90;;;;;;5059287;28;20524;-63
2021/05/31 02:16:42;;;;;;;11.02;4.32;;;8.90;99.90;;;;;;5060219;28;20048;-64
2021/05/31 02:19:12;;;;;;;8.18;4.63;;;8.90;99.90;;;;;;5059296;28;20052;-64
2021/05/31 02:21:42;;;;;;;7.55;4.05;;;8.90;99.90;;;;;;5057953;28;20048;-64
2021/05/31 02:24:10;;;;;;;10.38;4.90;;;8.80;99.90;;;;;;5058308;28;20053;-63
2021/05/31 02:26:38;;;;;;;9.05;4.78;;;8.80;99.90;;;;;;5059634;28;20067;-63
2021/05/31 02:29:04;;;;;;;7.85;4.88;;;8.90;99.90;;;;;;5057915;28;20532;-64
2021/05/31 02:31:32;;;;;;;10.52;4.28;;;8.90;99.90;;;;;;5058283;28;20051;-64
2021/05/31 02:33:59;;;;;;;9.38;5.30;;;8.80;99.90;;;;;;5056786;28;20055;-64
2021/05/31 02:36:27;;;;;;;8.77;4.47;;;8.60;99.90;;;;;;5057855;28;20049;-63
2021/05/31 02:38:53;;;;;;;10.52;4.90;;;8.50;99.90;;;;;;5056390;28;20052;-64
2021/05/31 02:41:20;;;;;;;10.23;5.53;;;8.60;99.90;;;;;;5058692;28;20052;-64
2021/05/31 02:43:46;;;;;;;9.15;4.80;;;8.60;99.90;;;;;;5059223;28;20459;-63
2021/05/31 02:46:13;;;;;;;10.60;5.22;;;8.60;99.90;;;;;;5057129;28;20051;-64
2021/05/31 02:48:39;;;;;;;;;;;8.60;99.90;;;;;;5056828;28;20056;-64
2021/05/31 02:51:06;;;;;;;10.75;4.78;;;8.60;99.90;;;;;;5058766;28;19920;-64
2021/05/31 02:53:34;;;;;;;13.73;5.32;;;8.50;99.90;;;;;;5058091;28;20085;-63
2021/05/31 02:56:01;;;;;;;8.35;4.47;;;8.50;99.90;;;;;;5055729;28;20439;-63
2021/05/31 02:58:28;;;;;;;10.77;5.00;;;8.40;99.90;;;;;;5056795;28;20225;-63
2021/05/31 03:00:55;;;;;;;13.43;5.53;;;8.40;99.90;;;;;;5054624;28;20052;-63
2021/05/31 03:03:21;;;;;;;9.93;5.20;;;8.30;99.90;;;;;;5059041;28;20512;-63
2021/05/31 03:05:48;;;;;;;10.85;5.68;;;8.20;99.90;;;;;;5057516;28;20074;-63
2021/05/31 03:08:14;;;;;;;10.88;5.05;;;8.10;99.90;;;;;;5057824;28;20435;-63
2021/05/31 03:10:42;;;;;;;13.27;5.82;;;8.20;99.90;;;;;;5054902;28;20052;-63
2021/05/31 03:13:09;;;;;;;8.55;4.72;;;8.20;99.90;;;;;;5058212;28;20315;-63
2021/05/31 03:15:36;;;;;;;11.70;5.07;;;8.30;99.90;;;;;;5058984;28;20051;-63
2021/05/31 03:18:02;;;;;;;10.88;5.32;;;8.40;99.90;;;;;;5056900;28;20071;-64
2021/05/31 03:20:29;;;;;;;10.77;5.80;;;8.40;99.90;;;;;;5057870;28;20041;-64
2021/05/31 03:22:57;;;;;;;9.65;4.80;;;8.40;99.90;;;;;;5057004;28;20055;-64
2021/05/31 03:25:24;;;;;;;11.20;5.50;;;8.50;99.90;;;;;;5057018;28;20048;-64
2021/05/31 03:27:53;;;;;;;10.70;5.45;;;8.30;99.90;;;;;;5058244;28;20052;-63
2021/05/31 03:30:21;;;;;;;12.43;6.22;;;8.30;99.90;;;;;;5057505;28;20056;-64
2021/05/31 03:32:48;;;;;;;10.63;5.88;;;8.40;99.90;;;;;;5056119;28;20056;-64
2021/05/31 03:35:15;;;;;;;12.18;5.32;;;8.30;99.90;;;;;;5056831;28;20052;-63
2021/05/31 03:37:45;;;;;;;10.27;5.88;;;8.30;99.90;;;;;;5055585;28;20487;-63
2021/05/31 03:40:14;;;;;;;11.18;5.63;;;8.20;99.90;;;;;;5056538;28;20048;-64
2021/05/31 03:42:41;;;;;;;11.02;5.80;;;8.20;99.90;;;;;;5059272;28;20052;-64
2021/05/31 03:45:11;;;;;;;11.38;5.35;;;8.20;99.90;;;;;;5054761;28;20583;-64
2021/05/31 03:47:38;;;;;;;13.77;5.93;;;8.40;99.90;;;;;;5054986;28;20052;-64
2021/05/31 03:50:06;;;;;;;12.73;5.70;;;8.30;99.90;;;;;;5057152;28;20497;-64
2021/05/31 03:52:33;;;;;;;12.18;5.93;;;8.40;99.90;;;;;;5058278;28;20501;-64
2021/05/31 03:55:00;;;;;;;14.48;5.47;;;8.40;99.90;;;;;;5060039;28;20390;-64
2021/05/31 03:57:26;;;;;;;10.73;5.80;;;8.40;99.90;;;;;;5057513;28;20472;-64
2021/05/31 03:59:53;;;;;;;16.63;5.82;;;8.20;99.90;;;;;;5056963;28;20574;-64
2021/05/31 04:02:21;;;;;;;12.75;5.40;;;8.30;99.90;;;;;;5056660;28;20915;-64
2021/05/31 04:04:51;;;;;;;8.93;4.95;;;8.30;99.90;;;;;;5059421;28;20067;-64
2021/05/31 04:12:49;;;;;;;12.00;5.93;;;8.30;99.90;;;;;;5059552;28;20051;-64
2021/05/31 04:15:15;;;;;;;11.98;5.03;;;8.40;99.90;;;;;;5063545;28;20088;-64
2021/05/31 04:17:44;;;;;;;11.32;4.78;;;8.40;99.90;;;;;;5059538;28;20056;-64
2021/05/31 04:20:12;;;;;;;10.15;5.00;;;8.40;99.90;;;;;;5058593;28;20041;-64
2021/05/31 04:22:38;;;;;;;10.65;5.20;;;8.50;99.90;;;;;;5061045;28;20489;-64
2021/05/31 04:25:06;;;;;;;11.45;5.50;;;8.50;99.90;;;;;;5060671;28;20394;-64
2021/05/31 04:27:33;;;;;;;11.20;5.05;;;8.60;99.90;;;;;;5059705;28;20056;-64
2021/05/31 04:29:59;;;;;;;8.70;4.65;;;8.50;99.90;;;;;;5061680;28;20048;-64
2021/05/31 04:32:26;;;;;;;10.43;5.15;;;8.60;99.90;;;;;;5059437;28;20532;-64
2021/05/31 04:34:54;;;;;;;13.65;5.25;;;8.70;99.90;;;;;;5064067;28;20682;-64
2021/05/31 04:37:20;;;;;;;11.05;5.20;;;8.80;99.90;;;;;;5060688;28;20048;-64
2021/05/31 04:39:47;;;;;;;10.38;4.32;;;8.80;99.90;;;;;;5059789;28;20060;-64
2021/05/31 04:42:14;;;;;;;8.85;4.65;;;8.70;99.90;;;;;;5063016;28;20047;-65
2021/05/31 04:44:40;;;;;;;12.50;5.20;;;8.70;99.90;;;;;;5063764;28;20055;-64
2021/05/31 04:47:08;;;;;;;10.25;5.82;;;8.90;99.90;;;;;;5059001;28;20120;-64
2021/05/31 04:49:34;;;;;;;8.88;5.05;;;8.90;99.90;;;;;;5059409;28;20064;-64
2021/05/31 04:52:03;;;;;;;15.05;5.30;;;8.90;99.90;;;;;;5059846;28;20063;-64
2021/05/31 04:54:31;;;;;;;12.13;4.93;;;9.00;99.90;;;;;;5059670;28;20055;-64
2021/05/31 04:56:58;;;;;;;12.15;5.55;;;9.10;99.90;;;;;;5061291;28;20060;-64
2021/05/31 04:59:24;;;;;;;9.48;5.07;;;9.10;99.90;;;;;;5059499;28;20588;-64
2021/05/31 05:01:51;;;;;;;13.13;5.28;;;9.10;99.90;;;;;;5060539;28;20049;-64
2021/05/31 05:04:17;;;;;;;9.73;4.70;;;9.20;99.90;;;;;;5063518;28;20049;-64
2021/05/31 05:06:43;;;;;;;;;;;9.10;99.90;;;;;;5062612;28;20710;-64
2021/05/31 05:09:11;;;;;;;9.52;4.85;;;9.10;99.90;;;;;;5060073;28;20417;-65
2021/05/31 05:11:38;;;;;;;14.57;5.68;;;9.20;99.90;;;;;;5060197;28;21396;-64
2021/05/31 05:14:04;;;;;;;12.15;5.13;;;9.30;99.90;;;;;;5060381;28;20052;-64
2021/05/31 05:16:31;;;;;;;16.15;5.22;;;9.40;99.90;;;;;;5059407;28;20079;-64
2021/05/31 05:18:58;;;;;;;16.38;5.50;;;9.50;99.90;;;;;;5058879;28;20342;-64
2021/05/31 05:21:24;;;;;;;18.80;5.38;;;9.50;99.90;;;;;;5061545;28;20075;-64
2021/05/31 05:23:51;;;;;;;21.15;6.30;;;9.40;99.90;;;;;;5062403;28;20063;-64
2021/05/31 05:26:19;;;;;;;13.90;5.47;;;9.40;99.90;;;;;;5061824;28;20109;-64
2021/05/31 05:28:47;;;;;;;11.27;5.28;;;9.50;99.90;;;;;;5059177;28;20056;-64
2021/05/31 05:31:14;;;;;;;15.25;5.07;;;9.70;99.90;;;;;;5061096;28;20044;-64
2021/05/31 05:33:42;;;;;;;9.77;4.55;;;9.70;99.90;;;;;;5059962;28;20059;-64
2021/05/31 05:36:20;;;;;;;12.15;5.43;;;9.80;99.90;;;;;;5060310;28;20694;-64
2021/05/31 05:41:41;;;;;;;12.13;5.07;;;9.90;99.90;;;;;;5038930;28;20052;-64
2021/05/31 05:49:45;;;;;;;13.70;5.00;;;10.00;99.90;;;;;;5058311;28;20094;-64
2021/05/31 05:52:12;;;;;;;13.02;6.13;;;10.20;99.90;;;;;;5058658;28;20052;-64
2021/05/31 05:54:39;;;;;;;10.13;5.10;;;10.30;99.90;;;;;;5058463;28;20053;-64
2021/05/31 05:57:08;;;;;;;10.55;4.68;;;10.30;99.90;;;;;;5058706;28;20052;-64
2021/05/31 05:59:34;;;;;;;11.68;4.80;;;10.40;99.90;;;;;;5062214;28;20463;-64
2021/05/31 06:02:01;;;;;;;10.48;4.40;;;10.50;99.90;;;;;;5063053;28;20052;-64
2021/05/31 06:04:28;;;;;;;11.10;4.80;;;10.50;99.90;;;;;;5060629;28;20485;-64
2021/05/31 06:06:54;;;;;;;10.93;4.90;;;10.40;99.90;;;;;;5059488;28;20048;-64
2021/05/31 06:09:21;;;;;;;12.30;5.15;;;10.70;99.90;;;;;;5058139;28;20048;-64
2021/05/31 06:11:48;;;;;;;10.77;5.13;;;10.80;99.90;;;;;;5058740;28;20443;-64
2021/05/31 06:14:16;;;;;;;9.45;4.93;;;11.00;99.90;;;;;;5061886;28;20044;-64
2021/05/31 06:16:42;;;;;;;13.60;5.60;;;11.10;99.90;;;;;;5058804;28;20095;-64
2021/05/31 06:19:09;;;;;;;10.77;5.20;;;11.10;99.90;;;;;;5060917;28;20082;-64
2021/05/31 06:21:36;;;;;;;11.70;5.30;;;11.10;99.90;;;;;;5061619;28;20052;-64
2021/05/31 06:24:03;;;;;;;12.68;5.20;;;11.10;99.90;;;;;;5060131;28;20286;-64
2021/05/31 06:26:29;;;;;;;8.13;4.55;;;11.20;99.90;;;;;;5059335;28;20459;-64
2021/05/31 06:28:56;;;;;;;12.20;4.57;;;11.30;99.90;;;;;;5060920;28;20052;-64
2021/05/31 06:31:24;;;;;;;9.02;4.68;;;11.30;99.90;;;;;;5058118;28;20056;-65
2021/05/31 06:33:50;;;;;;;10.07;5.20;;;11.50;99.90;;;;;;5058069;28;20055;-64
2021/05/31 06:36:16;;;;;;;;;;;11.80;99.90;;;;;;5059609;28;20566;-64
2021/05/31 06:38:43;;;;;;;11.90;4.45;;;11.90;99.90;;;;;;5059459;28;20376;-64
2021/05/31 06:41:10;;;;;;;20.58;5.07;;;12.00;99.90;;;;;;5059513;28;20051;-64
2021/05/31 06:43:38;;;;;;;22.05;5.22;;;12.20;99.90;;;;;;5059595;28;20497;-64
2021/05/31 06:46:04;;;;;;;8.50;4.35;;;12.30;99.90;;;;;;5058908;28;20416;-64
2021/05/31 06:48:32;;;;;;;17.05;5.47;;;12.40;99.90;;;;;;5057649;28;20048;-64
2021/05/31 06:50:59;;;;;;;10.95;5.65;;;12.50;99.90;;;;;;5060560;28;20458;-64
2021/05/31 06:53:26;;;;;;;14.52;4.78;;;12.50;99.90;;;;;;5061775;28;20059;-65
2021/05/31 06:55:52;;;;;;;11.27;4.55;;;12.70;99.90;;;;;;5061511;28;20059;-65
2021/05/31 06:58:19;;;;;;;9.48;5.15;;;12.90;99.90;;;;;;5057578;28;20045;-64
2021/05/31 07:00:47;;;;;;;9.73;4.78;;;13.00;99.90;;;;;;5058192;28;20045;-64
2021/05/31 07:03:14;;;;;;;10.55;5.05;;;13.10;99.90;;;;;;5062828;28;20508;-64
2021/05/31 07:05:42;;;;;;;8.45;4.47;;;13.20;99.90;;;;;;5059777;28;20101;-64
2021/05/31 07:08:08;;;;;;;9.88;4.78;;;13.30;99.90;;;;;;5056680;28;20052;-64
2021/05/31 07:10:35;;;;;;;16.23;5.57;;;13.50;99.90;;;;;;5060378;28;20053;-65
2021/05/31 07:13:03;;;;;;;10.10;5.30;;;13.50;99.90;;;;;;5057411;28;20116;-64
2021/05/31 07:15:30;;;;;;;8.07;4.65;;;13.60;99.90;;;;;;5056916;28;20102;-64
2021/05/31 07:17:57;;;;;;;10.13;4.70;;;13.70;99.90;;;;;;5057384;28;20415;-64
2021/05/31 07:20:23;;;;;;;11.23;4.82;;;14.00;99.90;;;;;;5057397;28;20048;-64
2021/05/31 07:22:51;;;;;;;9.88;4.63;;;14.10;99.90;;;;;;5057622;28;20428;-64
2021/05/31 07:25:19;;;;;;;10.00;4.93;;;14.20;99.90;;;;;;5056390;28;20052;-64
2021/05/31 07:27:47;;;;;;;8.73;4.10;;;14.30;99.90;;;;;;5051662;28;20075;-65
2021/05/31 07:30:15;;;;;;;8.75;4.70;;;14.40;99.90;;;;;;5055800;28;20048;-65
2021/05/31 07:32:41;;;;;;;13.52;4.95;;;14.50;99.90;;;;;;5054775;28;20052;-65
2021/05/31 07:35:09;;;;;;;6.00;3.05;;;14.70;99.90;;;;;;5054574;28;20047;-64
2021/05/31 07:37:37;;;;;;;6.70;3.33;;;14.70;99.90;;;;;;5055309;28;20064;-65
2021/05/31 07:40:08;;;;;;;7.47;3.30;;;14.90;99.90;;;;;;5052671;28;21104;-65
2021/05/31 07:42:34;;;;;;;4.38;2.80;;;15.10;99.90;;;;;;5053979;28;20054;-65
2021/05/31 07:45:01;;;;;;;5.57;2.90;;;15.30;99.90;;;;;;5053564;28;20044;-65
2021/05/31 07:47:28;;;;;;;6.38;3.10;;;15.60;99.90;;;;;;5053199;28;20054;-65
2021/05/31 07:49:55;;;;;;;6.22;2.85;;;15.70;99.90;;;;;;5053318;28;20603;-65
2021/05/31 07:52:24;;;;;;;6.75;2.88;;;16.00;99.90;;;;;;5054014;28;20749;-65
2021/05/31 07:54:52;;;;;;;5.95;3.00;;;16.20;99.90;;;;;;5053996;28;20053;-65
2021/05/31 07:57:21;;;;;;;8.30;2.60;;;16.50;99.90;;;;;;5049286;28;20048;-66
2021/05/31 07:59:48;;;;;;;7.97;3.03;;;16.50;99.90;;;;;;5053328;28;20103;-65
2021/05/31 08:02:15;;;;;;;5.63;2.88;;;16.60;99.90;;;;;;5055335;28;20455;-65
2021/05/31 08:04:42;;;;;;;7.40;3.35;;;16.80;99.90;;;;;;5059091;28;20056;-65
2021/05/31 08:07:09;;;;;;;11.23;4.75;;;17.00;99.90;;;;;;5055811;28;20056;-65
2021/05/31 08:09:36;;;;;;;7.28;3.03;;;17.10;99.90;;;;;;5057861;28;20049;-66
2021/05/31 08:12:04;;;;;;;5.80;3.10;;;17.10;99.90;;;;;;5055047;28;20044;-65
2021/05/31 08:14:32;;;;;;;6.82;3.13;;;17.10;99.90;;;;;;5056468;28;20048;-65
2021/05/31 08:16:59;;;;;;;5.78;2.58;;;17.30;99.90;;;;;;5056491;28;20047;-65
2021/05/31 08:19:29;;;;;;;3.72;2.30;;;17.30;99.90;;;;;;5054243;28;20473;-65
2021/05/31 08:21:56;;;;;;;6.70;2.97;;;17.60;99.90;;;;;;5056380;28;20136;-65
2021/05/31 08:24:22;;;;;;;7.15;2.72;;;17.80;99.90;;;;;;5054219;28;20493;-65
2021/05/31 08:26:49;;;;;;;6.43;2.67;;;17.70;99.90;;;;;;5055082;28;20052;-65
2021/05/31 08:29:15;;;;;;;5.75;2.50;;;17.70;99.90;;;;;;5056322;28;20052;-66
2021/05/31 08:31:43;;;;;;;7.05;2.63;;;18.20;99.90;;;;;;5054472;28;20047;-66
2021/05/31 08:34:10;;;;;;;7.72;2.42;;;18.70;99.90;;;;;;5055153;28;20564;-65
2021/05/31 08:36:36;;;;;;;7.88;2.80;;;18.40;99.90;;;;;;5055505;28;20106;-65
2021/05/31 08:39:04;;;;;;;7.68;2.63;;;18.40;99.90;;;;;;5058172;28;20544;-66
2021/05/31 08:41:30;;;;;;;6.32;2.50;;;18.70;99.90;;;;;;5056695;28;20079;-66
2021/05/31 08:43:57;;;;;;;5.05;2.65;;;19.20;99.90;;;;;;5056680;28;20990;-65
2021/05/31 08:46:23;;;;;;;4.03;2.00;;;19.00;99.90;;;;;;5057278;28;20509;-65
2021/05/31 08:48:52;;;;;;;3.60;1.73;;;19.40;99.90;;;;;;5056232;28;20056;-65
2021/05/31 08:51:21;;;;;;;2.95;2.00;;;20.20;98.60;;;;;;5058311;28;20048;-66
2021/05/31 08:53:48;;;;;;;3.60;2.17;;;20.90;96.50;;;;;;5055040;28;20071;-66
2021/05/31 08:56:15;;;;;;;5.65;1.75;;;21.50;94.50;;;;;;5055445;28;20134;-66
2021/05/31 08:58:42;;;;;;;3.83;1.90;;;22.00;93.00;;;;;;5055208;28;20060;-66
2021/05/31 09:01:08;;;;;;;4.38;1.73;;;22.80;92.10;;;;;;5060165;28;20934;-66
2021/05/31 09:03:35;;;;;;;4.50;1.88;;;23.50;89.60;;;;;;5060137;28;20049;-66
2021/05/31 09:06:05;;;;;;;3.88;1.90;;;23.60;85.50;;;;;;5057297;28;20052;-66
2021/05/31 09:08:32;;;;;;;5.25;1.90;;;23.70;80.70;;;;;;5057518;28;20067;-66
2021/05/31 09:11:02;;;;;;;4.20;2.10;;;24.20;80.50;;;;;;5057595;28;20398;-66
2021/05/31 09:13:31;;;;;;;2.40;1.90;;;25.10;76.20;;;;;;5057777;28;20064;-66
2021/05/31 09:16:09;;;;;;;4.88;1.95;;;25.30;76.00;;;;;;5062247;28;20072;-66
2021/05/31 09:18:36;;;;;;;3.65;1.90;;;25.60;71.70;;;;;;5060119;28;20110;-66
2021/05/31 09:21:16;;;;;;;3.33;1.85;;;26.30;69.00;;;;;;5059517;28;20378;-67
2021/05/31 09:23:42;;;;;;;3.03;1.83;;;26.90;66.00;;;;;;5060255;28;20044;-67
2021/05/31 09:26:09;;;;;;;2.63;1.65;;;27.20;63.00;;;;;;5061186;28;20052;-67
2021/05/31 09:28:36;;;;;;;4.43;2.10;;;26.80;60.70;;;;;;5059710;28;20055;-67
2021/05/31 09:31:14;;;;;;;2.38;1.52;;;27.30;58.20;;;;;;5059110;28;20044;-67
2021/05/31 09:33:41;;;;;;;3.13;1.70;;;26.70;59.90;;;;;;5059770;28;20060;-67
2021/05/31 09:36:08;;;;;;;4.88;2.33;;;27.50;58.60;;;;;;5059641;28;20608;-67
2021/05/31 09:38:47;;;;;;;5.60;2.17;;;27.90;57.10;;;;;;5058477;28;20075;-67
2021/05/31 09:41:25;;;;;;;6.13;2.03;;;27.70;57.70;;;;;;5057352;28;20043;-67
2021/05/31 09:43:56;;;;;;;3.20;1.90;;;27.80;56.90;;;;;;5057967;28;20448;-67
2021/05/31 09:46:34;;;;;;;3.70;1.83;;;27.20;56.70;;;;;;5059386;28;20416;-67
2021/05/31 09:49:01;;;;;;;4.38;2.00;;;27.70;56.60;;;;;;5057998;28;20105;-67
2021/05/31 09:51:28;;;;;;;2.50;1.67;;;28.20;54.00;;;;;;5059457;28;20475;-67
2021/05/31 09:53:56;;;;;;;4.15;2.25;;;27.10;53.90;;;;;;5057995;28;20060;-67
2021/05/31 09:56:23;;;;;;;6.03;1.98;;;26.50;54.80;;;;;;5058568;28;20048;-67
2021/05/31 09:58:53;;;;;;;5.68;1.92;;;27.50;53.40;;;;;;5060150;28;20052;-67
2021/05/31 10:01:37;;;;;;;3.85;1.98;;;28.30;54.00;;;;;;5058667;28;20059;-67
2021/05/31 10:04:24;;;;;;;4.50;2.42;;;29.20;53.40;;;;;;5059563;28;20499;-67
2021/05/31 10:06:55;;;;;;;4.00;2.10;;;29.10;52.40;;;;;;5060709;28;20043;-68
2021/05/31 10:09:24;;;;;;;2.50;1.80;;;28.90;52.30;;;;;;5061067;28;20376;-67
2021/05/31 10:11:51;;;;;;;3.55;1.98;;;28.90;52.00;;;;;;5059561;28;20043;-67
2021/05/31 10:14:18;;;;;;;2.85;1.80;;;29.30;51.40;;;;;;5059323;28;21115;-67
2021/05/31 10:16:46;;;;;;;4.60;1.77;;;28.60;51.70;;;;;;5061295;28;20048;-67
2021/05/31 10:19:12;;;;;;;5.20;2.00;;;29.20;51.60;;;;;;5056323;28;20055;-67
2021/05/31 10:21:39;;;;;;;4.15;2.00;;;29.80;50.70;;;;;;5060123;28;20048;-67
2021/05/31 10:24:06;;;;;;;3.20;1.90;;;30.40;50.10;;;;;;5058678;28;20052;-67
2021/05/31 10:26:36;;;;;;;3.13;1.88;;;29.00;50.50;;;;;;5060392;28;20065;-67
2021/05/31 10:29:04;;;;;;;3.63;1.80;;;28.60;51.60;;;;;;5058620;28;20048;-67
2021/05/31 10:31:41;;;;;;;3.83;1.90;;;28.50;50.00;;;;;;5055415;28;20056;-68
2021/05/31 10:34:19;;;;;;;2.78;1.92;;;28.30;50.90;;;;;;5058501;28;20051;-67
2021/05/31 10:36:49;;;;;;;5.15;2.17;;;28.20;51.50;;;;;;5058116;28;20048;-67
2021/05/31 10:39:23;;;;;;;3.15;2.00;;;28.60;51.30;;;;;;5057952;28;20044;-67
2021/05/31 10:41:51;;;;;;;3.88;2.00;;;28.70;50.00;;;;;;5056554;28;20498;-67
2021/05/31 10:44:19;;;;;;;5.18;2.60;;;28.10;50.60;;;;;;5058457;28;20055;-67
2021/05/31 10:46:47;;;;;;;4.15;1.95;;;29.20;50.00;;;;;;5056919;28;20059;-67
2021/05/31 10:49:19;;;;;;;4.80;1.90;;;29.30;48.40;;;;;;5056961;28;20052;-67
2021/05/31 10:51:46;;;;;;;6.03;2.20;;;29.50;49.50;;;;;;5059168;28;20074;-67
2021/05/31 10:54:15;;;;;;;3.58;2.42;;;29.40;49.60;;;;;;5061651;28;20054;-67
2021/05/31 10:56:42;;;;;;;3.15;1.90;;;29.90;49.30;;;;;;5057714;28;20052;-67
2021/05/31 10:59:15;;;;;;;4.15;2.05;;;29.10;49.80;;;;;;5054545;28;20127;-67
2021/05/31 11:01:42;;;;;;;6.88;2.90;;;29.90;49.20;;;;;;5053252;28;20049;-67
2021/05/31 11:04:21;;;;;;;4.18;2.35;;;30.80;49.60;;;;;;5058606;28;20052;-67
2021/05/31 11:06:49;;;;;;;4.18;2.05;;;30.50;48.00;;;;;;5058226;28;20044;-67
2021/05/31 11:09:19;;;;;;;5.82;2.00;;;31.00;48.00;;;;;;5054986;28;20036;-67
2021/05/31 11:11:48;;;;;;;2.88;1.88;;;30.90;47.60;;;;;;5057449;28;20079;-65
2021/05/31 11:14:18;;;;;;;7.20;2.88;;;31.10;48.80;;;;;;5057784;28;20518;-65
2021/05/31 11:16:55;;;;;;;4.93;2.45;;;31.00;49.10;;;;;;5056529;28;20070;-68
2021/05/31 11:19:40;;;;;;;5.18;2.35;;;31.10;49.80;;;;;;5056305;28;20052;-68
2021/05/31 11:22:15;;;;;;;3.55;2.03;;;31.60;48.30;;;;;;5055560;28;20097;-68
2021/05/31 11:24:42;;;;;;;7.95;2.10;;;31.80;47.70;;;;;;5057542;28;20045;-68
2021/05/31 11:27:10;;;;;;;3.42;2.00;;;31.30;47.00;;;;;;5055902;28;21589;-69
2021/05/31 11:29:38;;;;;;;3.60;2.00;;;29.50;47.50;;;;;;5060786;28;20515;-68
2021/05/31 11:32:05;;;;;;;3.40;1.83;;;29.30;47.80;;;;;;5055846;28;20055;-67
2021/05/31 11:34:33;;;;;;;4.70;2.22;;;30.00;47.70;;;;;;5056044;28;20052;-68
2021/05/31 11:37:00;;;;;;;4.97;2.08;;;30.30;46.00;;;;;;5054149;28;20052;-67
2021/05/31 11:39:33;;;;;;;4.18;2.03;;;28.90;48.80;;;;;;5051230;28;20052;-68
2021/05/31 11:41:59;;;;;;;3.85;1.85;;;30.20;47.80;;;;;;5048997;28;20040;-68
2021/05/31 11:44:28;;;;;;;6.07;2.28;;;30.70;47.80;;;;;;5048902;28;20497;-67
2021/05/31 11:46:57;;;;;;;3.95;1.98;;;30.30;46.30;;;;;;5048730;28;20059;-68
2021/05/31 11:49:25;;;;;;;4.57;2.90;;;30.10;47.50;;;;;;5055311;28;20094;-68
2021/05/31 11:51:59;;;;;;;4.88;2.72;;;29.80;47.20;;;;;;5057238;28;20058;-68
2021/05/31 11:54:27;;;;;;;3.17;2.05;;;30.30;45.20;;;;;;5057678;28;20048;-68
2021/05/31 11:56:57;;;;;;;2.75;2.00;;;30.20;46.70;;;;;;5053189;28;20135;-68
2021/05/31 11:59:30;;;;;;;4.32;2.15;;;29.40;46.60;;;;;;5052900;28;20056;-68
2021/05/31 12:01:58;;;;;;;4.70;2.00;;;28.80;47.50;;;;;;5053623;28;20497;-68
2021/05/31 12:04:25;;;;;;;2.92;1.92;;;29.60;47.20;;;;;;5056481;28;20056;-68
2021/05/31 12:07:00;;;;;;;5.75;2.28;;;31.00;46.90;;;;;;5054800;28;20063;-68
2021/05/31 12:09:26;;;;;;;5.03;2.05;;;31.50;45.80;;;;;;5053240;28;20052;-68
2021/05/31 12:11:54;;;;;;;3.70;2.10;;;31.50;46.90;;;;;;5052067;28;20056;-68
2021/05/31 12:14:22;;;;;;;3.85;2.30;;;31.00;47.20;;;;;;5054582;28;20055;-68
2021/05/31 12:17:00;;;;;;;4.30;2.08;;;31.00;47.60;;;;;;5053647;28;20099;-68
2021/05/31 12:19:28;;;;;;;4.45;2.15;;;31.70;46.90;;;;;;5059628;28;20055;-68
2021/05/31 12:21:56;;;;;;;6.82;2.30;;;32.10;46.30;;;;;;5055383;28;20586;-68
2021/05/31 12:24:24;;;;;;;5.07;2.17;;;32.00;46.40;;;;;;5054669;28;20044;-68
2021/05/31 12:26:52;;;;;;;5.88;2.10;;;29.50;46.40;;;;;;5055580;28;20136;-68
2021/05/31 12:29:19;;;;;;;3.08;1.88;;;29.00;47.30;;;;;;5055588;28;20132;-68
2021/05/31 12:31:48;;;;;;;3.80;2.08;;;28.30;47.50;;;;;;5054963;28;20055;-68
2021/05/31 12:34:25;;;;;;;3.10;2.10;;;27.00;48.30;;;;;;5058281;28;20416;-68
2021/05/31 12:36:52;;;;;;;3.67;2.00;;;27.40;47.80;;;;;;5058832;28;20385;-68
2021/05/31 12:39:19;;;;;;;4.18;1.80;;;28.20;48.80;;;;;;5058030;28;20055;-66
2021/05/31 12:41:45;;;;;;;4.22;2.03;;;28.90;47.70;;;;;;5059904;28;20079;-68
2021/05/31 12:44:13;;;;;;;4.32;2.10;;;28.40;47.30;;;;;;5059039;28;20055;-68
2021/05/31 12:46:40;;;;;;;4.22;1.88;;;29.60;47.10;;;;;;5058945;28;20055;-69
2021/05/31 12:49:08;;;;;;;3.63;2.00;;;30.00;46.80;;;;;;5056746;28;20068;-66
2021/05/31 12:51:37;;;;;;;3.45;2.22;;;30.30;48.30;;;;;;5056192;28;20452;-67
2021/05/31 12:54:05;;;;;;;4.25;1.90;;;30.80;47.30;;;;;;5057858;28;20134;-66
2021/05/31 12:56:37;;;;;;;3.15;1.70;;;30.70;46.60;;;;;;5057860;28;20060;-66
2021/05/31 12:59:05;;;;;;;3.78;2.15;;;31.20;46.20;;;;;;5055400;28;20059;-66
2021/05/31 13:01:32;;;;;;;3.88;2.00;;;29.20;47.10;;;;;;5054144;28;20228;-66
2021/05/31 13:03:59;;;;;;;6.40;2.30;;;28.30;46.50;;;;;;5044205;28;20053;-66
2021/05/31 13:06:33;;;;;;;4.10;2.03;;;27.70;47.90;;;;;;5056183;28;20092;-66